Time;durP1;ratioP1;P1;durP2;ratioP2;P2;SDS_P1;SDS_P2;PMS_P1;PMS_P2;Temp;Humidity;BMP_temperature;BMP_pressure;BME280_temperature;BME280_humidity;BME280_pressure;Samples;Min_cycle;Max_cycle;Signal;HPM_P1;HPM_P2
2022/04/23 00:01:08;;;;;;;32.70;25.90;;;;;;;8.74;100.00;100331.06;5062465;28;20021;-63
2022/04/23 00:03:33;;;;;;;32.60;24.77;;;;;;;8.73;100.00;100327.50;5065112;28;20091;-63
2022/04/23 00:05:59;;;;;;;32.47;25.20;;;;;;;8.66;100.00;100323.09;5063542;28;20395;-64
2022/04/23 00:08:24;;;;;;;32.42;24.52;;;;;;;8.67;100.00;100324.88;5063733;28;20104;-64
2022/04/23 00:10:49;;;;;;;34.35;25.48;;;;;;;8.62;100.00;100320.44;5064965;28;20029;-63
2022/04/23 00:13:15;;;;;;;33.65;25.00;;;;;;;8.61;100.00;100329.25;5062105;28;20033;-64
2022/04/23 00:15:40;;;;;;;32.75;24.98;;;;;;;8.58;100.00;100324.84;5065916;28;20025;-65
2022/04/23 00:18:09;;;;;;;33.05;25.30;;;;;;;8.50;100.00;100323.91;5062579;28;20017;-65
2022/04/23 00:20:36;;;;;;;31.80;24.67;;;;;;;8.41;100.00;100321.22;5064587;28;20040;-65
2022/04/23 00:23:02;;;;;;;32.22;25.13;;;;;;;8.44;100.00;100326.50;5062474;28;20379;-65
2022/04/23 00:25:28;;;;;;;32.42;25.27;;;;;;;8.39;100.00;100329.09;5063530;28;20467;-66
2022/04/23 00:27:54;;;;;;;32.10;25.40;;;;;;;8.36;100.00;100327.34;5063892;28;20055;-66
2022/04/23 00:30:19;;;;;;;33.75;25.42;;;;;;;8.33;100.00;100324.69;5062511;28;20021;-65
2022/04/23 00:32:45;;;;;;;33.50;26.25;;;;;;;8.28;100.00;100329.03;5065168;28;20066;-66
2022/04/23 00:35:15;;;;;;;34.28;25.73;;;;;;;8.26;100.00;100329.94;5061694;28;20021;-66
2022/04/23 00:37:41;;;;;;;31.92;25.02;;;;;;;8.19;100.00;100323.72;5061830;28;20033;-66
2022/04/23 00:40:07;;;;;;;32.72;25.85;;;;;;;8.12;100.00;100322.78;5064852;28;20027;-66
2022/04/23 00:42:55;;;;;;;32.80;25.38;;;;;;;8.11;100.00;100320.16;5062356;28;20025;-65
2022/04/23 00:45:22;;;;;;;33.45;26.20;;;;;;;8.11;100.00;100328.06;5062368;28;20033;-65
2022/04/23 00:47:48;;;;;;;32.65;26.50;;;;;;;8.08;100.00;100331.56;5064983;28;20021;-65
2022/04/23 00:50:14;;;;;;;33.85;26.00;;;;;;;8.10;100.00;100326.31;5061386;28;20391;-66
2022/04/23 00:52:39;;;;;;;32.50;25.73;;;;;;;8.06;100.00;100320.13;5064440;28;20051;-65
2022/04/23 00:55:07;;;;;;;34.42;26.38;;;;;;;8.04;100.00;100321.88;5062155;28;20021;-66
2022/04/23 00:57:34;;;;;;;33.00;26.38;;;;;;;7.99;100.00;100318.34;5063436;28;20082;-65
2022/04/23 01:00:06;;;;;;;32.70;26.42;;;;;;;7.92;100.00;100317.44;5062756;28;20020;-65
2022/04/23 01:02:32;;;;;;;34.55;27.55;;;;;;;7.92;100.00;100317.44;5063689;28;20116;-65
2022/04/23 01:04:57;;;;;;;35.67;27.20;;;;;;;7.86;100.00;100320.00;5061690;28;20178;-64
2022/04/23 01:07:22;;;;;;;33.47;26.73;;;;;;;7.88;100.00;100320.91;5062079;28;20040;-65
2022/04/23 01:09:48;;;;;;;35.83;28.10;;;;;;;7.84;100.00;100320.00;5064200;28;20024;-65
2022/04/23 01:12:14;;;;;;;35.67;28.08;;;;;;;7.87;100.00;100320.91;5061150;28;20060;-64
2022/04/23 01:15:04;;;;;;;36.75;28.13;;;;;;;7.88;100.00;100320.00;5064280;28;20052;-64
2022/04/23 01:17:29;;;;;;;35.17;28.10;;;;;;;7.88;100.00;100320.00;5063284;28;20467;-64
2022/04/23 01:19:55;;;;;;;35.72;28.38;;;;;;;7.91;100.00;100315.66;5063301;28;20067;-64
2022/04/23 01:22:23;;;;;;;37.05;29.63;;;;;;;7.98;100.00;100316.56;5061953;28;20029;-64
2022/04/23 01:24:50;;;;;;;36.08;28.83;;;;;;;8.03;100.00;100322.75;5063950;28;20020;-66
2022/04/23 01:27:16;;;;;;;36.60;30.15;;;;;;;8.01;100.00;100327.13;5060821;28;20494;-65
2022/04/23 01:29:41;;;;;;;36.17;28.38;;;;;;;8.01;100.00;100325.38;5064769;28;20025;-64
2022/04/23 01:32:07;;;;;;;36.95;29.55;;;;;;;8.02;100.00;100329.78;5061315;28;20418;-64
2022/04/23 01:34:32;;;;;;;36.63;29.98;;;;;;;8.05;100.00;100318.38;5063417;28;20032;-65
2022/04/23 01:36:58;;;;;;;37.05;31.08;;;;;;;8.06;100.00;100330.66;5062458;28;20111;-64
2022/04/23 01:39:23;;;;;;;37.70;30.85;;;;;;;8.09;100.00;100329.81;5061967;28;20067;-65
2022/04/23 01:41:49;;;;;;;36.53;29.65;;;;;;;8.11;100.00;100323.69;5063888;28;20024;-67
2022/04/23 01:44:14;;;;;;;36.50;30.33;;;;;;;8.10;100.00;100324.56;5061073;28;20032;-64
2022/04/23 01:46:40;;;;;;;37.75;29.63;;;;;;;8.08;100.00;100333.31;5063919;28;20032;-64
2022/04/23 01:49:05;;;;;;;35.90;29.73;;;;;;;8.07;100.00;100331.53;5061686;28;20035;-65
2022/04/23 01:51:31;;;;;;;38.08;31.45;;;;;;;7.99;100.00;100336.75;5062656;28;20043;-65
2022/04/23 01:53:56;;;;;;;37.90;30.55;;;;;;;7.97;100.00;100328.84;5062409;28;20048;-66
2022/04/23 01:56:22;;;;;;;37.70;30.75;;;;;;;7.99;100.00;100337.66;5061589;28;20025;-67
2022/04/23 01:58:47;;;;;;;38.33;32.38;;;;;;;7.94;100.00;100339.38;5063940;28;20031;-65
2022/04/23 02:01:13;;;;;;;39.35;32.15;;;;;;;7.92;100.00;100337.59;5060949;28;20017;-64
2022/04/23 02:03:38;;;;;;;39.90;33.42;;;;;;;7.90;100.00;100329.69;5064155;28;20070;-64
2022/04/23 02:06:04;;;;;;;39.10;33.03;;;;;;;7.89;100.00;100341.06;5061748;28;20098;-64
2022/04/23 02:08:30;;;;;;;39.15;32.92;;;;;;;7.83;100.00;100338.41;5062685;28;20087;-64
2022/04/23 02:10:55;;;;;;;39.72;33.72;;;;;;;7.88;100.00;100336.69;5062764;28;20074;-64
2022/04/23 02:13:21;;;;;;;39.72;33.72;;;;;;;7.91;100.00;100336.72;5061046;28;20068;-64
2022/04/23 02:15:46;;;;;;;39.25;31.92;;;;;;;7.86;100.00;100333.16;5064052;28;20074;-65
2022/04/23 02:18:14;;;;;;;40.10;33.45;;;;;;;7.83;100.00;100333.13;5060678;28;20063;-65
2022/04/23 02:20:39;;;;;;;40.92;34.45;;;;;;;7.78;100.00;100333.09;5063519;28;20028;-65
2022/04/23 02:23:05;;;;;;;41.58;35.15;;;;;;;7.76;100.00;100336.59;5061639;28;20042;-66
2022/04/23 02:25:34;;;;;;;40.88;35.05;;;;;;;7.72;100.00;100332.16;5061971;28;20127;-65
2022/04/23 02:27:59;;;;;;;40.45;34.88;;;;;;;7.74;100.00;100333.06;5062068;28;20028;-65
2022/04/23 02:30:25;;;;;;;42.00;35.67;;;;;;;7.71;100.00;100333.94;5061602;28;20528;-65
2022/04/23 02:32:50;;;;;;;42.92;35.90;;;;;;;7.76;100.00;100331.31;5063042;28;20036;-66
2022/04/23 02:35:16;;;;;;;41.83;36.05;;;;;;;7.84;100.00;100337.53;5060262;28;20029;-65
2022/04/23 02:37:44;;;;;;;42.50;36.83;;;;;;;7.75;100.00;100327.81;5060352;28;20036;-65
2022/04/23 02:40:10;;;;;;;42.65;36.38;;;;;;;7.79;100.00;100328.72;5063251;28;20029;-66
2022/04/23 02:42:37;;;;;;;43.80;36.42;;;;;;;7.79;100.00;100331.34;5061240;28;20077;-66
2022/04/23 02:45:03;;;;;;;43.67;35.70;;;;;;;7.77;100.00;100326.06;5063326;28;20029;-66
2022/04/23 02:47:30;;;;;;;43.00;37.25;;;;;;;7.67;100.00;100335.66;5065368;28;20032;-66
2022/04/23 02:49:55;;;;;;;43.85;38.42;;;;;;;7.64;100.00;100330.34;5064788;28;20040;-66
2022/04/23 02:52:21;;;;;;;44.38;38.47;;;;;;;7.61;100.00;100327.69;5066480;28;20041;-65
2022/04/23 02:54:46;;;;;;;45.35;38.75;;;;;;;7.63;100.00;100332.97;5062473;28;20040;-66
2022/04/23 02:57:12;;;;;;;43.10;37.13;;;;;;;7.63;100.00;100331.25;5063748;28;20036;-64
2022/04/23 02:59:39;;;;;;;44.35;38.75;;;;;;;7.62;100.00;100329.47;5066595;28;20020;-65
2022/04/23 03:02:05;;;;;;;44.55;39.30;;;;;;;7.60;100.00;100323.31;5064523;28;20090;-66
2022/04/23 03:04:30;;;;;;;44.85;38.35;;;;;;;7.62;100.00;100324.22;5065349;28;20399;-65
2022/04/23 03:06:56;;;;;;;45.67;38.88;;;;;;;7.60;100.00;100323.31;5065908;28;20039;-65
2022/04/23 03:09:22;;;;;;;45.15;38.20;;;;;;;7.60;100.00;100315.44;5063859;28;20483;-65
2022/04/23 03:11:48;;;;;;;44.08;37.78;;;;;;;7.58;100.00;100317.16;5066826;28;20028;-65
2022/04/23 03:14:13;;;;;;;45.88;39.33;;;;;;;7.57;100.00;100320.69;5063673;28;20490;-65
2022/04/23 03:16:38;;;;;;;45.58;39.88;;;;;;;7.56;100.00;100316.28;5066169;28;20432;-65
2022/04/23 03:19:03;;;;;;;47.22;40.97;;;;;;;7.51;100.00;100310.09;5064726;28;20024;-65
2022/04/23 03:21:29;;;;;;;46.40;39.88;;;;;;;7.60;100.00;100314.53;5064712;28;20434;-65
2022/04/23 03:23:54;;;;;;;46.88;40.42;;;;;;;7.49;100.00;100310.06;5065447;28;20028;-65
2022/04/23 03:26:19;;;;;;;46.75;41.22;;;;;;;7.46;100.00;100317.06;5063391;28;20029;-63
2022/04/23 03:28:45;;;;;;;47.53;40.25;;;;;;;7.46;100.00;100307.41;5066700;28;20067;-63
2022/04/23 03:31:10;;;;;;;47.67;41.35;;;;;;;7.48;100.00;100307.44;5063127;28;20033;-63
2022/04/23 03:33:35;;;;;;;47.63;40.85;;;;;;;7.51;100.00;100317.97;5065936;28;20021;-63
2022/04/23 03:36:02;;;;;;;46.90;41.33;;;;;;;7.47;100.00;100310.91;5064442;28;20023;-63
2022/04/23 03:38:27;;;;;;;47.05;40.50;;;;;;;7.41;100.00;100314.41;5064228;28;20025;-63
2022/04/23 03:40:55;;;;;;;47.40;41.00;;;;;;;7.43;100.00;100311.78;5065536;28;20036;-63
2022/04/23 03:43:22;;;;;;;47.28;40.65;;;;;;;7.40;100.00;100309.13;5063408;28;20069;-63
2022/04/23 03:45:47;;;;;;;47.28;41.67;;;;;;;7.38;100.00;100303.81;5066285;28;20025;-63
2022/04/23 03:48:14;;;;;;;48.85;41.65;;;;;;;7.38;100.00;100301.19;5063121;28;20052;-63
2022/04/23 03:50:42;;;;;;;46.58;40.35;;;;;;;7.33;100.00;100300.28;5065427;28;20480;-63
2022/04/23 03:53:08;;;;;;;48.78;42.92;;;;;;;7.43;100.00;100307.41;5062994;28;20045;-63
2022/04/23 03:55:34;;;;;;;47.67;41.92;;;;;;;7.37;100.00;100307.34;5047162;28;20052;-62
2022/04/23 03:58:01;;;;;;;48.60;41.30;;;;;;;7.32;100.00;100301.16;5064055;28;20041;-64
2022/04/23 04:00:26;;;;;;;47.47;42.20;;;;;;;7.27;100.00;100301.13;5062299;28;20392;-64
2022/04/23 04:02:54;;;;;;;48.75;41.83;;;;;;;7.27;100.00;100298.50;5065763;28;20016;-63
2022/04/23 04:05:20;;;;;;;48.33;41.15;;;;;;;7.23;100.00;100299.31;5062516;28;20033;-64
2022/04/23 04:07:46;;;;;;;49.55;42.08;;;;;;;7.25;100.00;100297.59;5065938;28;20029;-63
2022/04/23 04:10:14;;;;;;;48.25;41.92;;;;;;;7.23;100.00;100299.31;5062409;28;20024;-63
2022/04/23 04:12:39;;;;;;;50.45;42.15;;;;;;;7.20;100.00;100293.16;5065293;28;20352;-67
2022/04/23 04:15:10;;;;;;;49.38;42.50;;;;;;;7.18;100.00;100295.78;5063081;28;20031;-67
2022/04/23 04:17:36;;;;;;;51.25;43.88;;;;;;;7.20;100.00;100295.78;5064696;28;20025;-65
2022/04/23 04:20:03;;;;;;;48.90;42.63;;;;;;;7.20;100.00;100291.41;5063567;28;20425;-65
2022/04/23 04:22:30;;;;;;;50.83;43.40;;;;;;;7.15;100.00;100287.88;5063395;28;20556;-64
2022/04/23 04:24:56;;;;;;;49.28;42.75;;;;;;;7.13;100.00;100286.97;5064272;28;20078;-66
2022/04/23 04:27:21;;;;;;;49.15;43.78;;;;;;;7.11;100.00;100280.81;5062150;28;20452;-67
2022/04/23 04:29:47;;;;;;;49.97;43.22;;;;;;;7.16;100.00;100281.72;5065440;28;20028;-64
2022/04/23 04:32:13;;;;;;;50.08;43.53;;;;;;;7.12;100.00;100279.94;5061936;28;20025;-66
2022/04/23 04:34:38;;;;;;;51.55;44.22;;;;;;;7.12;100.00;100280.84;5064661;28;20403;-64
2022/04/23 04:37:07;;;;;;;50.58;43.38;;;;;;;7.15;100.00;100282.63;5062883;28;20020;-65
2022/04/23 04:39:35;;;;;;;50.53;42.85;;;;;;;7.17;100.00;100283.50;5063796;28;20025;-65
2022/04/23 04:42:01;;;;;;;53.30;44.75;;;;;;;7.20;100.00;100288.78;5063459;28;20029;-65
2022/04/23 04:44:26;;;;;;;48.75;42.45;;;;;;;7.20;100.00;100287.91;5062820;28;20368;-64
2022/04/23 04:46:52;;;;;;;50.22;44.63;;;;;;;7.28;100.00;100291.47;5063263;28;20086;-64
2022/04/23 04:49:17;;;;;;;49.13;42.63;;;;;;;7.26;100.00;100291.47;5061742;28;20036;-63
2022/04/23 04:51:43;;;;;;;49.53;43.45;;;;;;;7.28;100.00;100288.84;5064711;28;20031;-63
2022/04/23 04:54:08;;;;;;;49.83;43.50;;;;;;;7.29;100.00;100291.47;5061965;28;20048;-64
2022/04/23 04:56:34;;;;;;;52.45;44.45;;;;;;;7.27;100.00;100295.84;5063420;28;20074;-64
2022/04/23 04:59:00;;;;;;;48.90;43.10;;;;;;;7.38;100.00;100298.56;5063628;28;20679;-63
2022/04/23 05:01:26;;;;;;;51.50;42.92;;;;;;;7.43;100.00;100298.63;5062414;28;20029;-63
2022/04/23 05:03:53;;;;;;;51.00;43.80;;;;;;;7.42;100.00;100304.75;5064252;28;20029;-63
2022/04/23 05:06:19;;;;;;;50.63;42.70;;;;;;;7.49;100.00;100303.94;5061241;28;20594;-64
2022/04/23 05:08:44;;;;;;;50.45;43.28;;;;;;;7.57;100.00;100306.63;5064172;28;20062;-64
2022/04/23 05:11:10;;;;;;;49.85;43.22;;;;;;;7.59;100.00;100307.53;5061358;28;20029;-64
2022/04/23 05:13:36;;;;;;;48.10;42.17;;;;;;;7.64;100.00;100303.19;5063901;28;20029;-63
2022/04/23 05:16:02;;;;;;;48.47;42.60;;;;;;;7.61;100.00;100301.41;5062821;28;20103;-63
2022/04/23 05:18:27;;;;;;;47.63;41.10;;;;;;;7.63;100.00;100304.94;5062585;28;20112;-63
2022/04/23 05:20:53;;;;;;;48.17;42.25;;;;;;;7.70;100.00;100310.22;5064176;28;20020;-63
2022/04/23 05:23:18;;;;;;;48.55;42.22;;;;;;;7.68;100.00;100303.19;5061028;28;20032;-64
2022/04/23 05:25:44;;;;;;;48.05;42.17;;;;;;;7.73;100.00;100300.59;5064523;28;20054;-64
2022/04/23 05:28:09;;;;;;;47.60;40.92;;;;;;;7.87;100.00;100300.72;5061504;28;20087;-63
2022/04/23 05:30:37;;;;;;;46.70;41.55;;;;;;;7.87;100.00;100303.34;5063272;28;20418;-63
2022/04/23 05:33:07;;;;;;;47.60;40.92;;;;;;;7.89;100.00;100304.22;5062574;28;20036;-63
2022/04/23 05:35:33;;;;;;;47.28;41.55;;;;;;;7.92;100.00;100301.63;5063110;28;20074;-63
2022/04/23 05:37:58;;;;;;;46.53;40.35;;;;;;;7.98;100.00;100298.13;5061583;28;20029;-64
2022/04/23 05:40:23;;;;;;;48.00;41.10;;;;;;;8.03;100.00;100297.28;5061423;28;20115;-63
2022/04/23 05:42:49;;;;;;;45.67;40.13;;;;;;;8.13;100.00;100310.53;5064268;28;20432;-63
2022/04/23 05:45:14;;;;;;;45.40;38.80;;;;;;;8.17;100.00;100294.75;5060910;28;20033;-63
2022/04/23 05:47:42;;;;;;;45.90;39.95;;;;;;;8.24;100.00;100300.91;5063806;28;20383;-64
2022/04/23 05:50:09;;;;;;;45.28;40.35;;;;;;;8.30;100.00;100295.72;5061560;28;20032;-64
2022/04/23 05:52:36;;;;;;;47.30;40.55;;;;;;;8.36;100.00;100300.13;5062544;28;20500;-67
2022/04/23 05:55:02;;;;;;;46.45;41.35;;;;;;;8.41;100.00;100298.38;5062257;28;20024;-64
2022/04/23 05:57:27;;;;;;;44.33;38.45;;;;;;;8.50;100.00;100297.56;5061707;28;20024;-64
2022/04/23 05:59:52;;;;;;;46.05;39.15;;;;;;;8.56;100.00;100300.22;5063352;28;20522;-64
2022/04/23 06:02:18;;;;;;;44.53;39.00;;;;;;;8.62;100.00;100304.63;5060777;28;20025;-64
2022/04/23 06:04:45;;;;;;;44.92;38.78;;;;;;;8.68;100.00;100305.56;5064304;28;20108;-65
2022/04/23 06:07:11;;;;;;;43.78;38.97;;;;;;;8.73;100.00;100297.66;5061103;28;20099;-65
2022/04/23 06:09:36;;;;;;;42.95;37.63;;;;;;;8.80;100.00;100288.03;5062751;28;20464;-65
2022/04/23 06:12:01;;;;;;;43.95;38.25;;;;;;;8.86;100.00;100295.94;5062379;28;20104;-65
2022/04/23 06:14:27;;;;;;;44.55;38.30;;;;;;;8.93;100.00;100287.19;5061553;28;20033;-64
2022/04/23 06:16:52;;;;;;;42.97;37.97;;;;;;;9.04;100.00;100300.38;5063596;28;20033;-67
2022/04/23 06:19:17;;;;;;;41.75;35.90;;;;;;;9.19;100.00;100302.19;5060316;28;20060;-66
2022/04/23 06:21:43;;;;;;;42.03;35.95;;;;;;;9.24;100.00;100295.13;5067194;28;20043;-65
2022/04/23 06:24:08;;;;;;;43.20;36.78;;;;;;;9.31;100.00;100296.91;5065135;28;20148;-66
2022/04/23 06:26:33;;;;;;;42.78;36.22;;;;;;;9.38;100.00;100292.53;5066288;28;20029;-63
2022/04/23 06:28:59;;;;;;;41.92;37.08;;;;;;;9.49;100.00;100295.16;5065890;28;20028;-64
2022/04/23 06:31:24;;;;;;;42.22;36.15;;;;;;;9.52;100.00;100295.16;5064908;28;20029;-64
2022/04/23 06:33:49;;;;;;;42.47;35.97;;;;;;;9.58;100.00;100295.13;5067629;28;20489;-64
2022/04/23 06:36:14;;;;;;;42.13;36.35;;;;;;;9.65;100.00;100298.66;5063980;28;20531;-63
2022/04/23 06:38:40;;;;;;;41.55;36.47;;;;;;;9.76;100.00;100300.41;5066834;28;20510;-63
2022/04/23 06:41:05;;;;;;;40.97;35.45;;;;;;;9.84;100.00;100307.44;5065321;28;20158;-63
2022/04/23 06:43:31;;;;;;;40.92;35.17;;;;;;;9.92;100.00;100295.13;5065192;28;20052;-64
2022/04/23 06:45:57;;;;;;;40.22;34.05;;;;;;;10.01;100.00;100283.66;5066188;28;20123;-64
2022/04/23 06:48:22;;;;;;;41.25;35.08;;;;;;;10.07;100.00;100278.34;5064197;28;20353;-64
2022/04/23 06:50:47;;;;;;;39.95;34.80;;;;;;;10.17;100.00;100292.44;5067407;28;20031;-64
2022/04/23 06:53:13;;;;;;;41.35;34.42;;;;;;;10.28;100.00;100282.69;5063531;28;20449;-63
2022/04/23 06:55:38;;;;;;;39.30;33.45;;;;;;;10.35;100.00;100292.38;5066025;28;20032;-64
2022/04/23 06:58:04;;;;;;;39.33;33.90;;;;;;;10.40;100.00;100287.09;5065347;28;20107;-64
2022/04/23 07:00:29;;;;;;;40.22;34.33;;;;;;;10.49;100.00;100283.56;5064918;28;20036;-64
2022/04/23 07:02:54;;;;;;;38.17;33.00;;;;;;;10.59;100.00;100274.69;5066164;28;20103;-63
2022/04/23 07:05:21;;;;;;;38.22;32.47;;;;;;;10.69;100.00;100273.75;5062085;28;20040;-63
2022/04/23 07:07:59;;;;;;;40.65;32.58;;;;;;;10.84;100.00;100271.91;5066683;28;20506;-63
2022/04/23 07:10:29;;;;;;;38.50;32.47;;;;;;;10.92;100.00;100275.38;5064225;28;20029;-64
2022/04/23 07:12:56;;;;;;;38.10;32.65;;;;;;;10.96;100.00;100269.19;5065940;28;20024;-64
2022/04/23 07:15:23;;;;;;;37.15;31.33;;;;;;;11.01;100.00;100264.75;5063550;28;20029;-64
2022/04/23 07:17:49;;;;;;;37.45;32.25;;;;;;;11.06;100.00;100276.16;5065412;28;20035;-64
2022/04/23 07:20:16;;;;;;;38.88;33.22;;;;;;;11.21;100.00;100266.38;5063222;28;20052;-63
2022/04/23 07:24:02;;;;;;;36.67;32.10;;;;;;;11.29;100.00;100272.50;5066292;28;20463;-64
2022/04/23 07:25:27;;;;;;;37.92;31.90;;;;;;;11.36;100.00;100273.31;5064204;28;20090;-64
2022/04/23 07:27:53;;;;;;;38.75;32.03;;;;;;;11.48;100.00;100262.63;5066295;28;20036;-64
2022/04/23 07:30:18;;;;;;;37.38;31.20;;;;;;;11.50;100.00;100272.31;5061591;28;20021;-65
2022/04/23 07:32:43;;;;;;;37.22;31.30;;;;;;;11.57;100.00;100256.38;5066576;28;20036;-66
2022/04/23 07:37:53;;;;;;;37.10;31.08;;;;;;;11.70;100.00;100265.97;5063584;28;20396;-65
2022/04/23 07:40:18;;;;;;;36.55;31.23;;;;;;;11.81;100.00;100250.84;5066299;28;20016;-65
2022/04/23 07:42:44;;;;;;;38.13;30.98;;;;;;;11.84;100.00;100245.53;5062862;28;20039;-65
2022/04/23 07:45:10;;;;;;;36.20;30.50;;;;;;;12.01;100.00;100260.38;5065562;28;20418;-65
2022/04/23 07:47:35;;;;;;;36.72;29.75;;;;;;;12.10;100.00;100251.47;5064284;28;20024;-65
2022/04/23 07:50:01;;;;;;;37.03;29.92;;;;;;;12.21;100.00;100254.88;5064093;28;20120;-66
2022/04/23 07:52:26;;;;;;;35.88;29.75;;;;;;;12.33;100.00;100257.38;5064877;28;20068;-66
2022/04/23 07:54:52;;;;;;;36.55;30.15;;;;;;;12.39;100.00;100251.09;5063050;28;20518;-65
2022/04/23 07:57:22;;;;;;;36.03;27.75;;;;;;;12.47;100.00;100243.94;5065759;28;20029;-65
2022/04/23 07:59:47;;;;;;;36.90;29.88;;;;;;;12.61;100.00;100250.84;5062620;28;20379;-66
2022/04/23 08:02:12;;;;;;;35.65;30.05;;;;;;;12.72;100.00;100251.56;5065527;28;20027;-65
2022/04/23 08:04:38;;;;;;;35.65;29.23;;;;;;;12.89;100.00;100251.34;5063212;28;20024;-65
2022/04/23 08:07:03;;;;;;;34.58;27.35;;;;;;;13.05;100.00;100254.63;5064194;28;20032;-65
2022/04/23 08:09:29;;;;;;;33.95;27.73;;;;;;;13.48;100.00;100253.97;5064592;28;20460;-65
2022/04/23 08:11:55;;;;;;;34.78;28.98;;;;;;;13.81;100.00;100248.97;5062826;28;20062;-66
2022/04/23 08:14:20;;;;;;;33.63;27.08;;;;;;;14.34;100.00;100237.31;5065621;28;20021;-66
2022/04/23 08:16:48;;;;;;;32.72;25.70;;;;;;;14.63;100.00;100229.63;5062543;28;20021;-66
2022/04/23 08:19:14;;;;;;;33.22;25.27;;;;;;;14.44;100.00;100230.91;5065330;28;20021;-66
2022/04/23 08:21:39;;;;;;;32.92;26.08;;;;;;;14.38;100.00;100226.56;5062986;28;20393;-67
2022/04/23 08:24:05;;;;;;;33.38;26.27;;;;;;;14.73;100.00;100218.78;5064051;28;20399;-66
2022/04/23 08:26:30;;;;;;;32.22;25.10;;;;;;;15.18;100.00;100228.38;5063709;28;20044;-65
2022/04/23 08:31:39;;;;;;;31.77;24.05;;;;;;;15.69;100.00;100231.50;5062600;28;20051;-65
2022/04/23 08:34:05;;;;;;;32.10;25.42;;;;;;;15.36;100.00;100219.91;5063967;28;20112;-66
2022/04/23 08:36:35;;;;;;;31.83;25.85;;;;;;;15.27;100.00;100234.34;5063833;28;20099;-64
2022/04/23 08:39:05;;;;;;;33.17;24.88;;;;;;;15.55;100.00;100235.44;5063268;28;20116;-64
2022/04/23 08:41:31;;;;;;;31.60;23.83;;;;;;;15.54;100.00;100229.25;5063805;28;20027;-65
2022/04/23 08:44:07;;;;;;;32.35;24.70;;;;;;;15.77;100.00;100227.75;5061719;28;20444;-64
2022/04/23 08:46:34;;;;;;;31.83;25.27;;;;;;;16.19;100.00;100230.16;5063243;28;20089;-64
2022/04/23 08:49:10;;;;;;;32.75;25.27;;;;;;;16.88;100.00;100232.63;5062928;28;20049;-64
2022/04/23 08:51:37;;;;;;;31.83;25.02;;;;;;;16.63;93.53;100221.78;5062756;28;20056;-64
2022/04/23 08:54:08;;;;;;;31.25;24.45;;;;;;;16.71;94.97;100223.28;5062784;28;20506;-65
2022/04/23 08:56:35;;;;;;;32.00;24.98;;;;;;;17.02;93.00;100230.38;5062850;28;20017;-64
2022/04/23 08:59:00;;;;;;;30.70;24.67;;;;;;;17.14;91.31;100237.13;5063138;28;20036;-65
2022/04/23 09:01:30;;;;;;;30.77;24.45;;;;;;;17.68;89.74;100246.00;5064004;28;20371;-65
2022/04/23 09:03:56;;;;;;;30.90;25.10;;;;;;;17.95;84.54;100229.94;5061952;28;20476;-64
2022/04/23 09:06:21;;;;;;;31.17;25.55;;;;;;;17.68;84.77;100242.44;5064811;28;20023;-64
2022/04/23 09:09:20;;;;;;;34.40;25.33;;;;;;;18.08;84.82;100236.59;5061406;28;20040;-64
2022/04/23 09:11:57;;;;;;;31.92;26.63;;;;;;;18.02;81.60;100234.13;5064905;28;20027;-65
2022/04/23 09:14:30;;;;;;;31.58;26.08;;;;;;;17.40;81.37;100225.56;5061191;28;20391;-65
2022/04/23 09:25:30;;;;;;;34.05;27.33;;;;;;;16.99;86.04;100243.81;5060987;28;20039;-64
2022/04/23 09:27:56;;;;;;;33.38;27.80;;;;;;;16.87;83.79;100245.06;5061450;28;20475;-64
2022/04/23 09:30:21;;;;;;;34.08;29.38;;;;;;;16.72;83.82;100240.19;5064305;28;20024;-65
2022/04/23 09:32:57;;;;;;;35.40;29.45;;;;;;;16.65;84.86;100247.50;5061088;28;20033;-64
2022/04/23 09:35:24;;;;;;;34.47;29.95;;;;;;;16.67;85.83;100240.34;5060955;28;20121;-64
2022/04/23 09:40:34;;;;;;;34.85;28.80;;;;;;;18.04;79.10;100234.97;5062774;28;20044;-68
2022/04/23 09:43:05;;;;;;;35.08;30.45;;;;;;;18.78;75.62;100239.34;5063333;28;20028;-68
2022/04/23 09:45:31;;;;;;;36.47;31.83;;;;;;;19.78;70.93;100246.00;5062079;28;20033;-68
2022/04/23 09:48:13;;;;;;;36.20;31.65;;;;;;;19.90;62.89;100236.53;5063671;28;20066;-67
2022/04/23 09:50:40;;;;;;;35.83;31.92;;;;;;;18.93;66.04;100237.88;5062836;28;20048;-67
2022/04/23 09:53:08;;;;;;;33.92;29.48;;;;;;;18.98;64.65;100238.59;5062354;28;20437;-67
2022/04/23 09:55:34;;;;;;;33.78;29.10;;;;;;;19.69;61.09;100241.00;5066101;28;20173;-68
2022/04/23 09:58:00;;;;;;;35.25;30.10;;;;;;;19.08;62.28;100239.94;5067601;28;20021;-67
2022/04/23 10:00:26;;;;;;;37.70;31.67;;;;;;;19.09;62.23;100240.81;5064438;28;20052;-65
2022/04/23 10:02:58;;;;;;;36.00;31.48;;;;;;;19.00;62.24;100231.34;5068374;28;20024;-68
2022/04/23 10:05:24;;;;;;;35.92;31.52;;;;;;;20.15;59.95;100230.09;5064635;28;20056;-65
2022/04/23 10:07:53;;;;;;;35.20;31.02;;;;;;;20.78;49.92;100229.91;5068260;28;20089;-67
2022/04/23 10:10:25;;;;;;;34.15;30.55;;;;;;;21.52;48.86;100236.16;5064503;28;20052;-65
2022/04/23 10:12:52;;;;;;;33.90;29.00;;;;;;;22.36;43.99;100221.94;5064464;28;20029;-68
2022/04/23 10:15:17;;;;;;;32.47;27.67;;;;;;;22.75;43.12;100212.59;5064360;28;20037;-67
2022/04/23 10:17:43;;;;;;;32.42;27.23;;;;;;;23.46;39.75;100219.31;5067651;28;20078;-65
2022/04/23 10:20:11;;;;;;;32.65;27.48;;;;;;;23.81;39.71;100214.50;5065111;28;20028;-66
2022/04/23 10:22:58;;;;;;;33.45;28.33;;;;;;;23.87;37.26;100215.09;5066428;28;20078;-65
2022/04/23 10:25:39;;;;;;;31.92;28.42;;;;;;;24.04;36.49;100203.28;5064370;28;20037;-64
2022/04/23 10:28:05;;;;;;;33.00;27.95;;;;;;;24.05;35.65;100208.59;5064858;28;20033;-65
2022/04/23 10:30:31;;;;;;;31.67;26.25;;;;;;;23.82;35.20;100201.88;5065635;28;20373;-64
2022/04/23 10:32:56;;;;;;;32.17;27.83;;;;;;;23.68;35.59;100208.13;5066964;28;20021;-65
2022/04/23 10:35:21;;;;;;;32.33;27.67;;;;;;;24.04;35.33;100208.69;5064094;28;20498;-64
2022/04/23 10:37:49;;;;;;;31.45;27.13;;;;;;;24.58;34.51;100191.78;5063878;28;20067;-64
2022/04/23 10:40:17;;;;;;;31.63;26.65;;;;;;;24.60;34.65;100206.97;5066918;28;20467;-64
2022/04/23 10:43:19;;;;;;;32.28;27.23;;;;;;;25.54;34.00;100208.00;5064911;28;20056;-65
2022/04/23 10:45:45;;;;;;;32.13;27.30;;;;;;;25.74;33.03;100202.09;5061686;28;20036;-65
2022/04/23 10:48:19;;;;;;;31.63;26.50;;;;;;;25.45;33.89;100208.66;5064343;28;20351;-65
2022/04/23 10:51:01;;;;;;;31.88;27.08;;;;;;;25.08;33.56;100206.56;5062054;28;20538;-64
2022/04/23 10:53:37;;;;;;;31.55;27.13;;;;;;;24.42;34.53;100202.69;5062186;28;20396;-65
2022/04/23 10:56:07;;;;;;;31.15;26.55;;;;;;;24.55;34.08;100211.75;5063492;28;20094;-64
2022/04/23 10:58:33;;;;;;;31.27;27.20;;;;;;;25.17;33.46;100205.06;5062774;28;20033;-64
2022/04/23 11:01:18;;;;;;;32.58;28.02;;;;;;;24.95;33.64;100201.09;5064174;28;20392;-65
2022/04/23 11:03:43;;;;;;;33.05;28.08;;;;;;;23.85;34.74;100213.34;5064502;28;20040;-65
2022/04/23 11:12:22;;;;;;;31.98;27.33;;;;;;;23.74;35.59;100185.31;5060406;28;20033;-65
2022/04/23 11:14:52;;;;;;;33.40;27.67;;;;;;;23.10;36.52;100190.84;5065493;28;20108;-64
2022/04/23 11:17:23;;;;;;;31.70;27.52;;;;;;;22.02;38.50;100192.31;5061340;28;20025;-65
2022/04/23 11:19:52;;;;;;;33.03;28.98;;;;;;;22.16;37.75;100186.16;5062067;28;20037;-68
2022/04/23 11:22:19;;;;;;;33.50;27.42;;;;;;;22.32;37.37;100183.53;5063198;28;20021;-65
2022/04/23 11:24:46;;;;;;;33.22;27.20;;;;;;;22.52;37.58;100186.97;5066290;28;20020;-67
2022/04/23 11:27:29;;;;;;;32.55;27.25;;;;;;;22.46;37.12;100185.47;5063624;28;20024;-68
2022/04/23 11:29:55;;;;;;;32.28;27.95;;;;;;;22.40;37.25;100180.44;5063338;28;20468;-69